UAL2124 KACV-KLAX
Flight info
| Callsign | UAL2124 |
|---|---|
| Flight time | 1h 25m |
| Altitude | 39000 |
| Route | HOCUT5 FOT FARRA BURGL IRNMN2 |
| Aircraft | B736/M-SDE2E3FGHIRWXY/LB1 |
Departure
| Time | 2026-04-23 02:53 |
|---|---|
| Airport | California Redwood Coast-Humboldt County Airport (KACV) |
Arrival
| Time | 2026-04-23 04:18 |
|---|---|
| Airport | Los Angeles International Airport (KLAX) |
| Time | Latitude | Longitude | Altitude | Speed | Heading |
|---|---|---|---|---|---|
| 2026-04-23 02:34 | 40.97057 | -124.10573 | 222 ft | 0 kts | 244° |
| 2026-04-23 02:44 | 40.97041 | -124.10579 | 222 ft | 4 kts | 184° |
| 2026-04-23 02:44 | 40.97026 | -124.10573 | 225 ft | 4 kts | 128° |
| 2026-04-23 02:44 | 40.97039 | -124.10560 | 222 ft | 4 kts | 248° |
| 2026-04-23 02:44 | 40.97046 | -124.10540 | 225 ft | 4 kts | 166° |
| 2026-04-23 02:45 | 40.97051 | -124.10543 | 223 ft | 1 kts | 128° |
| 2026-04-23 02:48 | 40.97049 | -124.10538 | 223 ft | 4 kts | 118° |
| 2026-04-23 02:48 | 40.97055 | -124.10500 | 224 ft | 4 kts | 66° |
| 2026-04-23 02:48 | 40.97067 | -124.10463 | 224 ft | 4 kts | 74° |
| 2026-04-23 02:48 | 40.97052 | -124.10435 | 228 ft | 4 kts | 150° |
| 2026-04-23 02:49 | 40.97046 | -124.10430 | 227 ft | 0 kts | 151° |
| 2026-04-23 02:50 | 40.97040 | -124.10425 | 225 ft | 2 kts | 144° |
| 2026-04-23 02:51 | 40.97033 | -124.10404 | 226 ft | 3 kts | 99° |
| 2026-04-23 02:51 | 40.97042 | -124.10369 | 226 ft | 5 kts | 64° |
| 2026-04-23 02:51 | 40.97073 | -124.10334 | 227 ft | 6 kts | 7° |
| 2026-04-23 02:51 | 40.97092 | -124.10341 | 225 ft | 0 kts | 332° |
| 2026-04-23 02:52 | 40.97110 | -124.10354 | 225 ft | 21 kts | 332° |
| 2026-04-23 02:52 | 40.97469 | -124.10596 | 220 ft | 92 kts | 333° |
| 2026-04-23 02:52 | 40.98216 | -124.11096 | 246 ft | 140 kts | 333° |
| 2026-04-23 02:52 | 40.99061 | -124.11739 | 742 ft | 145 kts | 321° |
| 2026-04-23 02:53 | 40.99546 | -124.12900 | 1206 ft | 157 kts | 270° |
| 2026-04-23 02:53 | 40.99185 | -124.14299 | 1908 ft | 158 kts | 247° |
| 2026-04-23 02:53 | 40.98733 | -124.15610 | 2697 ft | 153 kts | 249° |
| 2026-04-23 02:53 | 40.98283 | -124.16960 | 3219 ft | 167 kts | 252° |
| 2026-04-23 02:54 | 40.98053 | -124.18493 | 3683 ft | 183 kts | 267° |
| 2026-04-23 02:54 | 40.97913 | -124.20264 | 4141 ft | 200 kts | 266° |
| 2026-04-23 02:54 | 40.97758 | -124.22173 | 4547 ft | 218 kts | 265° |
| 2026-04-23 02:54 | 40.97585 | -124.24280 | 4907 ft | 242 kts | 265° |
| 2026-04-23 02:55 | 40.97459 | -124.26575 | 5434 ft | 257 kts | 268° |
| 2026-04-23 02:55 | 40.97319 | -124.28951 | 6253 ft | 262 kts | 260° |
| 2026-04-23 02:55 | 40.96528 | -124.31133 | 7076 ft | 272 kts | 229° |
| 2026-04-23 02:55 | 40.94948 | -124.32500 | 8003 ft | 277 kts | 200° |
| 2026-04-23 02:56 | 40.93017 | -124.32662 | 8878 ft | 286 kts | 169° |
| 2026-04-23 02:56 | 40.91069 | -124.31947 | 9663 ft | 296 kts | 165° |
| 2026-04-23 02:56 | 40.89065 | -124.31197 | 10437 ft | 308 kts | 166° |
| 2026-04-23 02:56 | 40.86924 | -124.30437 | 10878 ft | 328 kts | 166° |
| 2026-04-23 02:57 | 40.84696 | -124.29653 | 11745 ft | 332 kts | 166° |
| 2026-04-23 02:57 | 40.82440 | -124.28855 | 12595 ft | 340 kts | 166° |
| 2026-04-23 02:57 | 40.80147 | -124.28052 | 13308 ft | 351 kts | 166° |
| 2026-04-23 02:57 | 40.77767 | -124.27225 | 14219 ft | 354 kts | 166° |
| 2026-04-23 02:58 | 40.75366 | -124.26387 | 15034 ft | 360 kts | 165° |
| 2026-04-23 02:58 | 40.72927 | -124.25535 | 15888 ft | 364 kts | 165° |
| 2026-04-23 02:58 | 40.70476 | -124.24679 | 16855 ft | 365 kts | 165° |
| 2026-04-23 02:58 | 40.67996 | -124.23813 | 17717 ft | 370 kts | 165° |
| 2026-04-23 02:59 | 40.65494 | -124.22890 | 18548 ft | 376 kts | 162° |
| 2026-04-23 02:59 | 40.62985 | -124.21848 | 19309 ft | 380 kts | 161° |
| 2026-04-23 02:59 | 40.60466 | -124.20755 | 20111 ft | 383 kts | 160° |
| 2026-04-23 02:59 | 40.57904 | -124.19632 | 20906 ft | 386 kts | 160° |
| 2026-04-23 03:00 | 40.55391 | -124.18533 | 21659 ft | 390 kts | 160° |
| 2026-04-23 03:00 | 40.52807 | -124.17411 | 22472 ft | 393 kts | 160° |
| 2026-04-23 03:00 | 40.50164 | -124.16271 | 23257 ft | 397 kts | 160° |
| 2026-04-23 03:00 | 40.47562 | -124.15153 | 23969 ft | 401 kts | 160° |
| 2026-04-23 03:01 | 40.44896 | -124.14013 | 24598 ft | 405 kts | 160° |
| 2026-04-23 03:01 | 40.42201 | -124.12864 | 25235 ft | 409 kts | 160° |
| 2026-04-23 03:01 | 40.39483 | -124.11707 | 25847 ft | 413 kts | 161° |
| 2026-04-23 03:01 | 40.36734 | -124.10539 | 26413 ft | 419 kts | 161° |
| 2026-04-23 03:02 | 40.33936 | -124.09350 | 26929 ft | 424 kts | 161° |
| 2026-04-23 03:02 | 40.31122 | -124.08157 | 27589 ft | 426 kts | 162° |
| 2026-04-23 03:02 | 40.28282 | -124.06955 | 28129 ft | 431 kts | 162° |
| 2026-04-23 03:02 | 40.25409 | -124.05739 | 28692 ft | 435 kts | 162° |
| 2026-04-23 03:03 | 40.22513 | -124.04514 | 29248 ft | 439 kts | 163° |
| 2026-04-23 03:03 | 40.19591 | -124.03278 | 29677 ft | 446 kts | 165° |
| 2026-04-23 03:03 | 40.16606 | -124.02019 | 30022 ft | 454 kts | 165° |
| 2026-04-23 03:03 | 40.13594 | -124.00750 | 30525 ft | 456 kts | 165° |
| 2026-04-23 03:04 | 40.10564 | -123.99473 | 30957 ft | 459 kts | 166° |
| 2026-04-23 03:04 | 40.07513 | -123.98189 | 31334 ft | 463 kts | 166° |
| 2026-04-23 03:04 | 40.04425 | -123.96890 | 31685 ft | 467 kts | 167° |
| 2026-04-23 03:04 | 40.01321 | -123.95587 | 31947 ft | 472 kts | 167° |
| 2026-04-23 03:05 | 39.98169 | -123.94265 | 32245 ft | 477 kts | 167° |
| 2026-04-23 03:05 | 39.95042 | -123.92952 | 32620 ft | 479 kts | 167° |
| 2026-04-23 03:05 | 39.91869 | -123.91624 | 33016 ft | 480 kts | 168° |
| 2026-04-23 03:05 | 39.88649 | -123.90268 | 33431 ft | 480 kts | 168° |
| 2026-04-23 03:06 | 39.85521 | -123.88949 | 33939 ft | 478 kts | 168° |
| 2026-04-23 03:06 | 39.82321 | -123.87607 | 34407 ft | 476 kts | 168° |
| 2026-04-23 03:06 | 39.79207 | -123.86308 | 34766 ft | 476 kts | 168° |
| 2026-04-23 03:06 | 39.76052 | -123.84995 | 35097 ft | 477 kts | 168° |
| 2026-04-23 03:07 | 39.72850 | -123.83663 | 35459 ft | 476 kts | 168° |
| 2026-04-23 03:07 | 39.69698 | -123.82352 | 35814 ft | 475 kts | 168° |
| 2026-04-23 03:07 | 39.66548 | -123.81042 | 36139 ft | 475 kts | 168° |
| 2026-04-23 03:07 | 39.63438 | -123.79751 | 36448 ft | 475 kts | 168° |
| 2026-04-23 03:08 | 39.60284 | -123.78441 | 36772 ft | 475 kts | 168° |
| 2026-04-23 03:08 | 39.57103 | -123.77121 | 37138 ft | 474 kts | 168° |
| 2026-04-23 03:08 | 39.53960 | -123.75818 | 37464 ft | 474 kts | 168° |
| 2026-04-23 03:08 | 39.50860 | -123.74535 | 37781 ft | 474 kts | 168° |
| 2026-04-23 03:09 | 39.47723 | -123.73237 | 38093 ft | 473 kts | 168° |
| 2026-04-23 03:09 | 39.44584 | -123.71940 | 38419 ft | 472 kts | 168° |
| 2026-04-23 03:09 | 39.41453 | -123.70647 | 38715 ft | 472 kts | 168° |
| 2026-04-23 03:09 | 39.38321 | -123.69356 | 38959 ft | 473 kts | 168° |
| 2026-04-23 03:10 | 39.35189 | -123.68065 | 39201 ft | 472 kts | 168° |
| 2026-04-23 03:10 | 39.28907 | -123.65483 | 39235 ft | 474 kts | 168° |
| 2026-04-23 03:11 | 39.22644 | -123.62908 | 39233 ft | 471 kts | 168° |
| 2026-04-23 03:11 | 39.16415 | -123.60353 | 39224 ft | 469 kts | 168° |
| 2026-04-23 03:12 | 39.10210 | -123.57838 | 39226 ft | 465 kts | 169° |
| 2026-04-23 03:12 | 39.04041 | -123.55318 | 39221 ft | 466 kts | 168° |
| 2026-04-23 03:13 | 38.97890 | -123.52794 | 39230 ft | 468 kts | 169° |
| 2026-04-23 03:13 | 38.91679 | -123.50260 | 39241 ft | 469 kts | 169° |
| 2026-04-23 03:14 | 38.85444 | -123.47727 | 39232 ft | 471 kts | 169° |
| 2026-04-23 03:14 | 38.79184 | -123.45192 | 39231 ft | 472 kts | 169° |
| 2026-04-23 03:15 | 38.72901 | -123.42657 | 39236 ft | 473 kts | 169° |
| 2026-04-23 03:15 | 38.66601 | -123.40109 | 39225 ft | 473 kts | 169° |
| 2026-04-23 03:16 | 38.60315 | -123.37571 | 39216 ft | 474 kts | 169° |
| 2026-04-23 03:16 | 38.50889 | -123.33776 | 39205 ft | 472 kts | 170° |
| 2026-04-23 03:17 | 38.44632 | -123.31265 | 39216 ft | 471 kts | 170° |
| 2026-04-23 03:17 | 38.38393 | -123.28766 | 39219 ft | 469 kts | 170° |
| 2026-04-23 03:18 | 38.32206 | -123.26292 | 39211 ft | 468 kts | 171° |
| 2026-04-23 03:18 | 38.26004 | -123.23816 | 39216 ft | 467 kts | 171° |
| 2026-04-23 03:19 | 38.19813 | -123.21349 | 39228 ft | 466 kts | 171° |
| 2026-04-23 03:19 | 38.14628 | -123.19286 | 39223 ft | 465 kts | 172° |
| 2026-04-23 03:20 | 38.08452 | -123.16833 | 39228 ft | 465 kts | 172° |
| 2026-04-23 03:20 | 38.02277 | -123.14387 | 39247 ft | 465 kts | 171° |
| 2026-04-23 03:21 | 37.96140 | -123.11958 | 39230 ft | 465 kts | 172° |
| 2026-04-23 03:21 | 37.89958 | -123.09515 | 39242 ft | 465 kts | 172° |
| 2026-04-23 03:22 | 37.83772 | -123.07075 | 39239 ft | 465 kts | 172° |
| 2026-04-23 03:22 | 37.77589 | -123.04640 | 39238 ft | 466 kts | 172° |
| 2026-04-23 03:23 | 37.71457 | -123.01838 | 39226 ft | 479 kts | 160° |
| 2026-04-23 03:23 | 37.68627 | -122.99540 | 39244 ft | 490 kts | 149° |
| 2026-04-23 03:23 | 37.66094 | -122.96599 | 39211 ft | 501 kts | 138° |
| 2026-04-23 03:24 | 37.61593 | -122.89863 | 39226 ft | 503 kts | 135° |
| 2026-04-23 03:24 | 37.57156 | -122.83042 | 39228 ft | 503 kts | 135° |
| 2026-04-23 03:25 | 37.52672 | -122.76269 | 39228 ft | 502 kts | 136° |
| 2026-04-23 03:25 | 37.48188 | -122.69599 | 39224 ft | 501 kts | 136° |
| 2026-04-23 03:26 | 37.43672 | -122.62920 | 39227 ft | 501 kts | 137° |
| 2026-04-23 03:26 | 37.39152 | -122.56249 | 39235 ft | 501 kts | 136° |
| 2026-04-23 03:27 | 37.34635 | -122.49589 | 39221 ft | 500 kts | 137° |
| 2026-04-23 03:27 | 37.30116 | -122.42936 | 39226 ft | 500 kts | 137° |
| 2026-04-23 03:28 | 37.25599 | -122.36301 | 39224 ft | 500 kts | 137° |
| 2026-04-23 03:28 | 37.21079 | -122.29670 | 39225 ft | 500 kts | 137° |
| 2026-04-23 03:29 | 37.16550 | -122.23045 | 39212 ft | 500 kts | 137° |
| 2026-04-23 03:29 | 37.12016 | -122.16428 | 39191 ft | 501 kts | 137° |
| 2026-04-23 03:30 | 37.07488 | -122.09825 | 39202 ft | 499 kts | 137° |
| 2026-04-23 03:30 | 37.02965 | -122.03244 | 39223 ft | 498 kts | 138° |
| 2026-04-23 03:31 | 36.98436 | -121.96675 | 39224 ft | 499 kts | 138° |
| 2026-04-23 03:31 | 36.93901 | -121.90109 | 39212 ft | 498 kts | 138° |
| 2026-04-23 03:32 | 36.89376 | -121.83566 | 39214 ft | 498 kts | 138° |
| 2026-04-23 03:32 | 36.84847 | -121.77033 | 39238 ft | 498 kts | 138° |
| 2026-04-23 03:33 | 36.80311 | -121.70501 | 39204 ft | 498 kts | 139° |
| 2026-04-23 03:33 | 36.75774 | -121.63981 | 39213 ft | 497 kts | 139° |
| 2026-04-23 03:34 | 36.71230 | -121.57463 | 39214 ft | 498 kts | 139° |
| 2026-04-23 03:34 | 36.66674 | -121.50942 | 39199 ft | 499 kts | 139° |
| 2026-04-23 03:35 | 36.62116 | -121.44423 | 39220 ft | 499 kts | 139° |
| 2026-04-23 03:35 | 36.57555 | -121.37921 | 39226 ft | 498 kts | 139° |
| 2026-04-23 03:36 | 36.52992 | -121.31430 | 39236 ft | 498 kts | 139° |
| 2026-04-23 03:36 | 36.48455 | -121.24989 | 39216 ft | 497 kts | 139° |
| 2026-04-23 03:37 | 36.43893 | -121.18521 | 39216 ft | 498 kts | 139° |
| 2026-04-23 03:37 | 36.39303 | -121.12140 | 39220 ft | 494 kts | 140° |
| 2026-04-23 03:38 | 36.34764 | -121.05708 | 39210 ft | 496 kts | 139° |
| 2026-04-23 03:38 | 36.30230 | -120.99249 | 39207 ft | 496 kts | 139° |
| 2026-04-23 03:39 | 36.25677 | -120.92818 | 39208 ft | 497 kts | 140° |
| 2026-04-23 03:39 | 36.21099 | -120.86392 | 39173 ft | 498 kts | 140° |
| 2026-04-23 03:40 | 36.16517 | -120.79973 | 39192 ft | 498 kts | 140° |
| 2026-04-23 03:40 | 36.11927 | -120.73553 | 39187 ft | 498 kts | 140° |
| 2026-04-23 03:41 | 36.07339 | -120.67149 | 39197 ft | 497 kts | 140° |
| 2026-04-23 03:41 | 36.02749 | -120.60753 | 39149 ft | 497 kts | 140° |
| 2026-04-23 03:42 | 35.98169 | -120.54382 | 39173 ft | 495 kts | 140° |
| 2026-04-23 03:42 | 35.93589 | -120.48026 | 39166 ft | 495 kts | 140° |
| 2026-04-23 03:43 | 35.89018 | -120.41692 | 39164 ft | 493 kts | 140° |
| 2026-04-23 03:43 | 35.84455 | -120.35385 | 39187 ft | 493 kts | 140° |
| 2026-04-23 03:44 | 35.79884 | -120.29075 | 39174 ft | 493 kts | 140° |
| 2026-04-23 03:44 | 35.75307 | -120.22769 | 39134 ft | 493 kts | 140° |
| 2026-04-23 03:45 | 35.70736 | -120.16480 | 39145 ft | 493 kts | 141° |
| 2026-04-23 03:45 | 35.66094 | -120.10335 | 39157 ft | 481 kts | 151° |
| 2026-04-23 03:46 | 35.63394 | -120.08069 | 39186 ft | 466 kts | 159° |
| 2026-04-23 03:46 | 35.60608 | -120.06032 | 39151 ft | 466 kts | 161° |
| 2026-04-23 03:46 | 35.55010 | -120.01999 | 39149 ft | 467 kts | 160° |
| 2026-04-23 03:47 | 35.49427 | -119.97850 | 39157 ft | 470 kts | 159° |
| 2026-04-23 03:47 | 35.43830 | -119.93645 | 39145 ft | 473 kts | 159° |
| 2026-04-23 03:48 | 35.38255 | -119.89457 | 39145 ft | 473 kts | 159° |
| 2026-04-23 03:48 | 35.32640 | -119.85236 | 39147 ft | 474 kts | 159° |
| 2026-04-23 03:49 | 35.27026 | -119.80935 | 38859 ft | 485 kts | 156° |
| 2026-04-23 03:49 | 35.24281 | -119.78474 | 38157 ft | 491 kts | 152° |
| 2026-04-23 03:49 | 35.21589 | -119.75882 | 37439 ft | 491 kts | 151° |
| 2026-04-23 03:50 | 35.18931 | -119.73278 | 36793 ft | 488 kts | 151° |
| 2026-04-23 03:50 | 35.16274 | -119.70700 | 36106 ft | 487 kts | 151° |
| 2026-04-23 03:50 | 35.13604 | -119.68154 | 35359 ft | 488 kts | 151° |
| 2026-04-23 03:50 | 35.10913 | -119.65628 | 34583 ft | 489 kts | 151° |
| 2026-04-23 03:51 | 35.08198 | -119.63102 | 33676 ft | 493 kts | 151° |
| 2026-04-23 03:51 | 35.05463 | -119.60565 | 32779 ft | 494 kts | 150° |
| 2026-04-23 03:51 | 35.02728 | -119.58028 | 31855 ft | 495 kts | 150° |
| 2026-04-23 03:51 | 34.99993 | -119.55487 | 31130 ft | 492 kts | 150° |
| 2026-04-23 03:52 | 34.97288 | -119.52973 | 30532 ft | 487 kts | 150° |
| 2026-04-23 03:52 | 34.94610 | -119.50487 | 29846 ft | 482 kts | 150° |
| 2026-04-23 03:52 | 34.91947 | -119.48019 | 29130 ft | 478 kts | 150° |
| 2026-04-23 03:52 | 34.89308 | -119.45604 | 28566 ft | 470 kts | 151° |
| 2026-04-23 03:53 | 34.86686 | -119.43256 | 27989 ft | 465 kts | 151° |
| 2026-04-23 03:53 | 34.84088 | -119.40947 | 27431 ft | 460 kts | 151° |
| 2026-04-23 03:53 | 34.81503 | -119.38653 | 26898 ft | 461 kts | 151° |
| 2026-04-23 03:53 | 34.78906 | -119.36342 | 26361 ft | 464 kts | 150° |
| 2026-04-23 03:54 | 34.76301 | -119.34023 | 25824 ft | 462 kts | 150° |
| 2026-04-23 03:54 | 34.73722 | -119.31722 | 25273 ft | 457 kts | 150° |
| 2026-04-23 03:54 | 34.71157 | -119.29469 | 24717 ft | 451 kts | 151° |
| 2026-04-23 03:54 | 34.68621 | -119.27260 | 24174 ft | 447 kts | 150° |
| 2026-04-23 03:55 | 34.66105 | -119.25070 | 23636 ft | 443 kts | 150° |
| 2026-04-23 03:55 | 34.63611 | -119.22904 | 23035 ft | 439 kts | 151° |
| 2026-04-23 03:55 | 34.61134 | -119.20768 | 22479 ft | 434 kts | 151° |
| 2026-04-23 03:55 | 34.58669 | -119.18699 | 21958 ft | 428 kts | 151° |
| 2026-04-23 03:56 | 34.56274 | -119.16575 | 21430 ft | 424 kts | 150° |
| 2026-04-23 03:56 | 34.53934 | -119.14508 | 20938 ft | 419 kts | 150° |
| 2026-04-23 03:56 | 34.51559 | -119.12407 | 20461 ft | 416 kts | 150° |
| 2026-04-23 03:56 | 34.49235 | -119.10346 | 19951 ft | 413 kts | 150° |
| 2026-04-23 03:57 | 34.46967 | -119.08287 | 19457 ft | 411 kts | 149° |
| 2026-04-23 03:57 | 34.44665 | -119.06272 | 18968 ft | 405 kts | 151° |
| 2026-04-23 03:57 | 34.42371 | -119.04309 | 18516 ft | 403 kts | 151° |
| 2026-04-23 03:57 | 34.40088 | -119.02347 | 17963 ft | 401 kts | 151° |
| 2026-04-23 03:58 | 34.37834 | -119.00388 | 17471 ft | 397 kts | 150° |
| 2026-04-23 03:58 | 34.35602 | -118.98450 | 16987 ft | 393 kts | 150° |
| 2026-04-23 03:58 | 34.33395 | -118.96526 | 16477 ft | 391 kts | 149° |
| 2026-04-23 03:58 | 34.31218 | -118.94554 | 15957 ft | 389 kts | 148° |
| 2026-04-23 03:59 | 34.29068 | -118.92586 | 15499 ft | 386 kts | 148° |
| 2026-04-23 03:59 | 34.26933 | -118.90641 | 15044 ft | 383 kts | 148° |
| 2026-04-23 03:59 | 34.24813 | -118.88714 | 14587 ft | 380 kts | 148° |
| 2026-04-23 03:59 | 34.22715 | -118.86779 | 14146 ft | 378 kts | 147° |
| 2026-04-23 04:00 | 34.20627 | -118.84858 | 13655 ft | 377 kts | 147° |
| 2026-04-23 04:00 | 34.18548 | -118.82954 | 13193 ft | 373 kts | 147° |
| 2026-04-23 04:00 | 34.16484 | -118.81087 | 12756 ft | 369 kts | 146° |
| 2026-04-23 04:00 | 34.14553 | -118.79068 | 12249 ft | 363 kts | 141° |
| 2026-04-23 04:01 | 34.12724 | -118.77043 | 11803 ft | 350 kts | 140° |
| 2026-04-23 04:01 | 34.10932 | -118.75143 | 11433 ft | 337 kts | 141° |
| 2026-04-23 04:01 | 34.09216 | -118.73222 | 11043 ft | 336 kts | 140° |
| 2026-04-23 04:01 | 34.08092 | -118.71934 | 10778 ft | 335 kts | 139° |
| 2026-04-23 04:02 | 34.06371 | -118.70044 | 10395 ft | 333 kts | 141° |
| 2026-04-23 04:02 | 34.04659 | -118.68197 | 9959 ft | 326 kts | 140° |
| 2026-04-23 04:02 | 34.03299 | -118.66106 | 9786 ft | 313 kts | 118° |
| 2026-04-23 04:02 | 34.02651 | -118.63616 | 9236 ft | 308 kts | 97° |
| 2026-04-23 04:03 | 34.02401 | -118.61084 | 8812 ft | 302 kts | 94° |
| 2026-04-23 04:03 | 34.02193 | -118.58570 | 8451 ft | 301 kts | 95° |
| 2026-04-23 04:03 | 34.01976 | -118.56072 | 8164 ft | 296 kts | 95° |
| 2026-04-23 04:03 | 34.01762 | -118.53667 | 7852 ft | 281 kts | 95° |
| 2026-04-23 04:04 | 34.01550 | -118.51376 | 7592 ft | 269 kts | 95° |
| 2026-04-23 04:04 | 34.01344 | -118.49181 | 7356 ft | 258 kts | 95° |
| 2026-04-23 04:04 | 34.01145 | -118.47074 | 7138 ft | 248 kts | 95° |
| 2026-04-23 04:04 | 34.01068 | -118.45025 | 6924 ft | 242 kts | 80° |
| 2026-04-23 04:05 | 34.01424 | -118.43065 | 6752 ft | 240 kts | 75° |
| 2026-04-23 04:05 | 34.01791 | -118.41101 | 6557 ft | 240 kts | 76° |
| 2026-04-23 04:05 | 34.02141 | -118.39138 | 6348 ft | 240 kts | 76° |
| 2026-04-23 04:05 | 34.02480 | -118.37190 | 6130 ft | 233 kts | 77° |
| 2026-04-23 04:06 | 34.02789 | -118.35329 | 6036 ft | 228 kts | 79° |
| 2026-04-23 04:06 | 34.02997 | -118.33416 | 6014 ft | 226 kts | 81° |
| 2026-04-23 04:06 | 34.03180 | -118.31531 | 6018 ft | 228 kts | 81° |
| 2026-04-23 04:06 | 34.03363 | -118.29654 | 6023 ft | 228 kts | 81° |
| 2026-04-23 04:07 | 34.03600 | -118.27764 | 6012 ft | 227 kts | 79° |
| 2026-04-23 04:07 | 34.03857 | -118.25888 | 6004 ft | 226 kts | 78° |
| 2026-04-23 04:07 | 34.04119 | -118.24028 | 6018 ft | 224 kts | 78° |
| 2026-04-23 04:07 | 34.04375 | -118.22194 | 6009 ft | 220 kts | 78° |
| 2026-04-23 04:08 | 34.04636 | -118.20359 | 6010 ft | 222 kts | 78° |
| 2026-04-23 04:08 | 34.04893 | -118.18532 | 6024 ft | 219 kts | 78° |
| 2026-04-23 04:08 | 34.05101 | -118.16714 | 6009 ft | 219 kts | 82° |
| 2026-04-23 04:08 | 34.05318 | -118.14907 | 6017 ft | 217 kts | 79° |
| 2026-04-23 04:09 | 34.05551 | -118.13112 | 6008 ft | 217 kts | 79° |
| 2026-04-23 04:09 | 34.05786 | -118.11317 | 6012 ft | 217 kts | 79° |
| 2026-04-23 04:09 | 34.06022 | -118.09508 | 5957 ft | 221 kts | 79° |
| 2026-04-23 04:09 | 34.06262 | -118.07674 | 5858 ft | 221 kts | 79° |
| 2026-04-23 04:10 | 34.06202 | -118.05847 | 5719 ft | 221 kts | 112° |
| 2026-04-23 04:10 | 34.05233 | -118.04475 | 5631 ft | 217 kts | 153° |
| 2026-04-23 04:10 | 34.03824 | -118.03857 | 5562 ft | 216 kts | 167° |
| 2026-04-23 04:10 | 34.02344 | -118.03490 | 5445 ft | 217 kts | 177° |
| 2026-04-23 04:11 | 34.00862 | -118.03424 | 5402 ft | 215 kts | 185° |
| 2026-04-23 04:11 | 33.99482 | -118.04011 | 5340 ft | 208 kts | 225° |
| 2026-04-23 04:11 | 33.98851 | -118.05472 | 5329 ft | 200 kts | 263° |
| 2026-04-23 04:11 | 33.98692 | -118.07131 | 5345 ft | 201 kts | 263° |
| 2026-04-23 04:12 | 33.98495 | -118.08842 | 5159 ft | 210 kts | 263° |
| 2026-04-23 04:12 | 33.98302 | -118.10574 | 4899 ft | 206 kts | 264° |
| 2026-04-23 04:12 | 33.98120 | -118.12269 | 4623 ft | 202 kts | 264° |
| 2026-04-23 04:12 | 33.97945 | -118.13923 | 4360 ft | 197 kts | 264° |
| 2026-04-23 04:13 | 33.97773 | -118.15556 | 4108 ft | 196 kts | 264° |
| 2026-04-23 04:13 | 33.97605 | -118.17158 | 3855 ft | 189 kts | 264° |
| 2026-04-23 04:13 | 33.97443 | -118.18711 | 3607 ft | 185 kts | 264° |
| 2026-04-23 04:13 | 33.97281 | -118.20244 | 3364 ft | 184 kts | 264° |
| 2026-04-23 04:14 | 33.97126 | -118.21735 | 3117 ft | 175 kts | 265° |
| 2026-04-23 04:14 | 33.96974 | -118.23191 | 2890 ft | 176 kts | 264° |
| 2026-04-23 04:14 | 33.96820 | -118.24667 | 2656 ft | 178 kts | 264° |
| 2026-04-23 04:14 | 33.96667 | -118.26138 | 2414 ft | 176 kts | 264° |
| 2026-04-23 04:15 | 33.96520 | -118.27537 | 2210 ft | 162 kts | 264° |
| 2026-04-23 04:15 | 33.96382 | -118.28873 | 1994 ft | 156 kts | 264° |
| 2026-04-23 04:15 | 33.96126 | -118.31343 | 1542 ft | 142 kts | 264° |
| 2026-04-23 04:16 | 33.96002 | -118.32521 | 1384 ft | 142 kts | 264° |
| 2026-04-23 04:16 | 33.95879 | -118.33697 | 1209 ft | 142 kts | 264° |
| 2026-04-23 04:16 | 33.95761 | -118.34868 | 994 ft | 140 kts | 263° |
| 2026-04-23 04:16 | 33.95640 | -118.36011 | 817 ft | 135 kts | 264° |
| 2026-04-23 04:17 | 33.95531 | -118.37100 | 650 ft | 126 kts | 265° |
| 2026-04-23 04:17 | 33.95426 | -118.38133 | 457 ft | 121 kts | 264° |
| 2026-04-23 04:17 | 33.95325 | -118.39127 | 290 ft | 120 kts | 262° |
| 2026-04-23 04:17 | 33.95220 | -118.40123 | 135 ft | 122 kts | 263° |
| 2026-04-23 04:18 | 33.95119 | -118.41104 | 93 ft | 106 kts | 263° |
| 2026-04-23 04:18 | 33.95054 | -118.41728 | 93 ft | 42 kts | 262° |
| 2026-04-23 04:18 | 33.95025 | -118.41984 | 92 ft | 24 kts | 259° |
| 2026-04-23 04:18 | 33.94970 | -118.42148 | 93 ft | 17 kts | 238° |
| 2026-04-23 04:19 | 33.94900 | -118.42240 | 94 ft | 11 kts | 220° |
| 2026-04-23 04:19 | 33.94889 | -118.42251 | 94 ft | 0 kts | 216° |
| 2026-04-23 04:20 | 33.94871 | -118.42264 | 94 ft | 8 kts | 208° |
| 2026-04-23 04:20 | 33.94794 | -118.42282 | 95 ft | 13 kts | 181° |
| 2026-04-23 04:20 | 33.94700 | -118.42272 | 93 ft | 14 kts | 172° |
| 2026-04-23 04:20 | 33.94615 | -118.42237 | 94 ft | 12 kts | 130° |
| 2026-04-23 04:21 | 33.94615 | -118.42136 | 94 ft | 12 kts | 83° |
| 2026-04-23 04:21 | 33.94625 | -118.42028 | 92 ft | 14 kts | 84° |
| 2026-04-23 04:21 | 33.94609 | -118.41930 | 93 ft | 12 kts | 140° |
| 2026-04-23 04:21 | 33.94523 | -118.41911 | 93 ft | 14 kts | 174° |
| 2026-04-23 04:22 | 33.94424 | -118.41895 | 92 ft | 15 kts | 173° |
| 2026-04-23 04:22 | 33.94313 | -118.41878 | 93 ft | 17 kts | 172° |
| 2026-04-23 04:22 | 33.94193 | -118.41858 | 93 ft | 18 kts | 173° |
| 2026-04-23 04:22 | 33.94063 | -118.41841 | 92 ft | 19 kts | 173° |
| 2026-04-23 04:23 | 33.93925 | -118.41815 | 91 ft | 20 kts | 171° |
| 2026-04-23 04:23 | 33.93812 | -118.41795 | 94 ft | 13 kts | 156° |
| 2026-04-23 04:23 | 33.93788 | -118.41697 | 93 ft | 15 kts | 84° |
| 2026-04-23 04:23 | 33.93803 | -118.41543 | 93 ft | 21 kts | 83° |
| 2026-04-23 04:24 | 33.93823 | -118.41354 | 95 ft | 24 kts | 83° |
| 2026-04-23 04:24 | 33.93842 | -118.41164 | 93 ft | 23 kts | 83° |
| 2026-04-23 04:24 | 33.93861 | -118.40979 | 92 ft | 22 kts | 83° |
| 2026-04-23 04:24 | 33.93879 | -118.40802 | 92 ft | 21 kts | 83° |
| 2026-04-23 04:25 | 33.93898 | -118.40627 | 93 ft | 21 kts | 83° |
| 2026-04-23 04:25 | 33.93915 | -118.40458 | 93 ft | 20 kts | 83° |
| 2026-04-23 04:25 | 33.93931 | -118.40304 | 93 ft | 16 kts | 84° |
| 2026-04-23 04:25 | 33.93945 | -118.40171 | 93 ft | 16 kts | 83° |
| 2026-04-23 04:26 | 33.93980 | -118.40069 | 93 ft | 13 kts | 27° |
| 2026-04-23 04:26 | 33.94069 | -118.40072 | 94 ft | 13 kts | 352° |
| 2026-04-23 04:26 | 33.94146 | -118.40084 | 93 ft | 6 kts | 353° |
| 2026-04-23 04:26 | 33.94156 | -118.40085 | 94 ft | 3 kts | 353° |
| 2026-04-23 04:27 | 33.94172 | -118.40087 | 92 ft | 1 kts | 353° |
| 2026-04-23 04:27 | 33.94194 | -118.40077 | 92 ft | 6 kts | 50° |
| 2026-04-23 04:27 | 33.94200 | -118.40044 | 92 ft | 2 kts | 76° |
| 2026-04-23 04:28 | 33.94204 | -118.40028 | 92 ft | 0 kts | 72° |